createdAt,value
2022-09-28T00:01:40.978Z,104864.63
2022-09-28T00:04:07.449Z,104839.13
2022-09-28T00:06:33.854Z,104758.50
2022-09-28T00:09:00.323Z,104672.41
2022-09-28T00:11:27.622Z,104675.31
2022-09-28T00:13:55.486Z,104690.50
2022-09-28T00:16:25.787Z,104676.50
2022-09-28T00:18:52.941Z,104621.22
2022-09-28T00:21:25.282Z,104700.28
2022-09-28T00:23:56.218Z,104639.06
2022-09-28T00:26:23.147Z,104592.44
2022-09-28T00:28:53.848Z,104663.47
2022-09-28T00:31:20.547Z,104642.19
2022-09-28T00:33:51.419Z,104740.25
2022-09-28T00:36:18.245Z,104643.09
2022-09-28T00:38:44.685Z,104696.31
2022-09-28T00:41:12.187Z,104671.63
2022-09-28T00:43:38.572Z,104725.53
2022-09-28T00:46:12.440Z,104720.97
2022-09-28T00:48:42.746Z,104668.75
2022-09-28T00:51:12.469Z,104659.69
2022-09-28T00:53:43.269Z,104731.88
2022-09-28T00:56:15.286Z,104747.56
2022-09-28T00:58:45.367Z,104751.75
2022-09-28T01:01:12.134Z,104776.91
2022-09-28T01:03:39.326Z,104690.38
2022-09-28T01:06:07.455Z,104644.91
2022-09-28T01:08:34.523Z,104752.50
2022-09-28T01:11:01.204Z,104684.69
2022-09-28T01:13:30.065Z,104694.91
2022-09-28T01:16:17.563Z,104697.16
2022-09-28T01:19:09.070Z,104695.84
2022-09-28T01:21:44.941Z,104618.06
2022-09-28T01:24:33.036Z,104661.25
2022-09-28T01:27:10.379Z,104605.59
2022-09-28T01:30:03.501Z,104600.19
2022-09-28T01:32:35.251Z,104558.38
2022-09-28T01:35:26.482Z,104527.75
2022-09-28T01:38:00.524Z,104472.56
2022-09-28T01:40:28.848Z,104385.22
2022-09-28T01:43:02.097Z,104367.81
2022-09-28T01:45:42.050Z,104316.03
2022-09-28T01:48:11.790Z,104220.75
2022-09-28T01:50:41.769Z,104195.97
2022-09-28T01:53:08.138Z,104080.97
2022-09-28T01:55:39.999Z,104005.84
2022-09-28T01:58:27.053Z,103785.59
2022-09-28T02:00:59.882Z,103644.41
2022-09-28T02:03:48.890Z,103634.63
2022-09-28T02:06:28.896Z,103569.72
2022-09-28T02:09:02.113Z,103497.25
2022-09-28T02:11:28.670Z,103502.25
2022-09-28T02:14:01.090Z,103458.38
2022-09-28T02:16:42.293Z,103542.22
2022-09-28T02:19:13.107Z,103465.94
2022-09-28T02:21:54.178Z,103530.63
2022-09-28T02:24:47.821Z,103552.25
2022-09-28T02:27:29.040Z,103421.00
2022-09-28T02:29:55.543Z,103455.28
2022-09-28T02:32:24.119Z,103464.41
2022-09-28T02:34:50.547Z,103465.44
2022-09-28T02:37:17.174Z,103431.25
2022-09-28T02:39:43.595Z,103493.59
2022-09-28T02:42:38.001Z,103467.81
2022-09-28T02:45:22.630Z,103465.69
2022-09-28T02:48:01.083Z,103483.66
2022-09-28T02:50:44.845Z,103406.16
2022-09-28T02:53:31.629Z,103412.22
2022-09-28T02:56:29.736Z,103353.72
2022-09-28T02:58:58.813Z,103379.59
2022-09-28T03:01:49.826Z,103397.06
2022-09-28T03:04:25.116Z,103357.84
2022-09-28T03:07:18.709Z,103345.34
2022-09-28T03:10:12.300Z,103291.63
2022-09-28T03:12:39.553Z,103329.41
2022-09-28T03:15:27.196Z,103283.94
2022-09-28T03:17:53.673Z,103325.28
2022-09-28T03:20:20.497Z,103330.94
2022-09-28T03:23:05.913Z,103315.13
2022-09-28T03:25:33.444Z,103340.84
2022-09-28T03:27:59.972Z,103379.47
2022-09-28T03:30:26.418Z,103376.53
2022-09-28T03:33:00.061Z,103410.31
2022-09-28T03:35:26.590Z,103388.69
2022-09-28T03:37:57.011Z,103397.31
2022-09-28T03:40:23.834Z,103337.31
2022-09-28T03:42:50.345Z,103366.03
2022-09-28T03:45:16.925Z,103372.53
2022-09-28T03:47:46.943Z,103314.63
2022-09-28T03:50:14.045Z,103365.66
2022-09-28T03:52:40.550Z,103352.78
2022-09-28T03:55:07.360Z,103381.97
2022-09-28T03:57:33.778Z,103382.75
2022-09-28T04:00:00.415Z,103396.81
2022-09-28T04:02:26.901Z,103338.28
2022-09-28T04:04:53.376Z,103351.28
2022-09-28T04:07:19.790Z,103404.66
2022-09-28T04:09:46.218Z,103463.28
2022-09-28T04:12:12.630Z,103428.13
2022-09-28T04:14:39.047Z,103459.09
2022-09-28T04:17:05.486Z,103448.63
2022-09-28T04:19:31.886Z,103512.72
2022-09-28T04:21:58.388Z,103512.66
2022-09-28T04:24:24.899Z,103471.22
2022-09-28T04:26:51.365Z,103526.59
2022-09-28T04:29:17.942Z,103581.22
2022-09-28T04:31:50.361Z,103640.13
2022-09-28T04:34:20.001Z,103622.03
2022-09-28T04:36:47.644Z,103654.06
2022-09-28T04:39:15.917Z,103814.06
2022-09-28T04:41:42.650Z,103799.22
2022-09-28T04:44:09.386Z,103833.91
2022-09-28T04:46:36.094Z,103861.22
2022-09-28T04:49:02.597Z,103834.22
2022-09-28T04:51:31.610Z,103861.63
2022-09-28T04:53:58.310Z,103946.34
2022-09-28T04:56:24.903Z,103958.28
2022-09-28T04:58:52.884Z,103951.69
2022-09-28T05:01:20.553Z,103987.25
2022-09-28T05:03:47.138Z,104028.84
2022-09-28T05:06:15.426Z,104014.63
2022-09-28T05:08:42.727Z,104078.75
2022-09-28T05:11:13.509Z,104127.00
2022-09-28T05:13:42.789Z,104101.00
2022-09-28T05:16:11.007Z,104204.63
2022-09-28T05:18:37.541Z,104116.22
2022-09-28T05:21:04.846Z,104156.28
2022-09-28T05:23:31.279Z,104206.63
2022-09-28T05:26:01.729Z,104219.69
2022-09-28T05:28:31.098Z,104247.88
2022-09-28T05:31:01.324Z,104280.25
2022-09-28T05:33:28.872Z,104274.97
2022-09-28T05:36:00.785Z,104274.69
2022-09-28T05:38:28.175Z,104351.78
2022-09-28T05:40:55.169Z,104326.56
2022-09-28T05:43:21.779Z,104336.50
2022-09-28T05:45:52.902Z,104351.72
2022-09-28T05:48:21.698Z,104383.06
2022-09-28T05:50:51.951Z,104315.03
2022-09-28T05:53:18.375Z,104290.47
2022-09-28T05:55:44.796Z,104342.56
2022-09-28T05:58:11.452Z,104267.44
2022-09-28T06:00:37.880Z,104293.28
2022-09-28T06:03:10.469Z,104264.97
2022-09-28T06:05:38.009Z,104205.28
2022-09-28T06:08:05.938Z,104189.69
2022-09-28T06:10:33.701Z,104157.19
2022-09-28T06:13:00.990Z,104157.22
2022-09-28T06:15:30.148Z,104133.34
2022-09-28T06:18:01.823Z,104080.53
2022-09-28T06:20:32.467Z,104144.69
2022-09-28T06:22:58.895Z,104127.47
2022-09-28T06:25:26.241Z,104110.19
2022-09-28T06:28:00.955Z,103981.59
2022-09-28T06:30:29.278Z,103959.91
2022-09-28T06:32:57.428Z,103775.41
2022-09-28T06:35:26.052Z,103722.47
2022-09-28T06:37:53.499Z,103677.31
2022-09-28T06:40:21.398Z,103646.22
2022-09-28T06:42:59.574Z,103622.34
2022-09-28T06:45:27.764Z,103595.88
2022-09-28T06:47:56.318Z,103491.34
2022-09-28T06:50:26.575Z,103527.72
2022-09-28T06:52:54.190Z,103504.19
2022-09-28T06:55:21.484Z,103518.72
2022-09-28T06:57:56.325Z,103482.16
2022-09-28T07:00:22.749Z,103458.88
2022-09-28T07:02:49.209Z,103351.22
2022-09-28T07:05:15.642Z,103186.78
2022-09-28T07:07:42.174Z,103199.63
2022-09-28T07:10:10.417Z,103211.41
2022-09-28T07:12:36.931Z,103220.34
2022-09-28T07:15:03.487Z,103216.41
2022-09-28T07:17:29.948Z,103177.88
2022-09-28T07:19:56.576Z,103173.66
2022-09-28T07:22:36.365Z,103143.00
2022-09-28T07:25:07.342Z,103156.59
2022-09-28T07:27:34.491Z,103093.50
2022-09-28T07:30:00.937Z,103048.25
2022-09-28T07:32:28.234Z,103035.09
2022-09-28T07:34:58.772Z,102998.34
2022-09-28T07:37:25.877Z,102975.06
2022-09-28T07:39:52.373Z,102910.44
2022-09-28T07:42:18.840Z,102830.56
2022-09-28T07:44:45.256Z,102809.75
2022-09-28T07:47:11.680Z,102650.00
2022-09-28T07:49:38.193Z,102476.56
2022-09-28T07:52:04.756Z,102456.75
2022-09-28T07:54:31.189Z,102283.06
2022-09-28T07:56:57.692Z,102238.13
2022-09-28T07:59:24.118Z,102113.59
2022-09-28T08:01:50.495Z,102014.50
2022-09-28T08:04:17.357Z,101972.50
2022-09-28T08:06:43.814Z,101922.72
2022-09-28T08:09:10.875Z,101874.25
2022-09-28T08:11:37.358Z,101834.41
2022-09-28T08:14:03.795Z,101847.25
2022-09-28T08:16:30.384Z,101814.06
2022-09-28T08:18:56.869Z,101816.34
2022-09-28T08:21:23.960Z,101718.34
2022-09-28T08:23:50.653Z,101653.03
2022-09-28T08:26:17.235Z,101590.28
2022-09-28T08:28:43.840Z,101527.13
2022-09-28T08:31:10.754Z,101427.94
2022-09-28T08:33:37.288Z,101328.97
2022-09-28T08:36:04.547Z,101334.00
2022-09-28T08:38:32.079Z,101328.56
2022-09-28T08:41:01.356Z,101358.97
2022-09-28T08:43:39.720Z,101387.03
2022-09-28T08:46:07.143Z,101403.34
2022-09-28T08:48:39.655Z,101458.59
2022-09-28T08:51:13.459Z,101458.34
2022-09-28T08:53:50.922Z,101382.22
2022-09-28T08:56:27.867Z,101338.69
2022-09-28T08:58:58.337Z,101378.19
2022-09-28T09:01:31.985Z,101281.09
2022-09-28T09:03:58.515Z,101358.47
2022-09-28T09:06:55.247Z,101317.97
2022-09-28T09:09:40.165Z,101399.75
2022-09-28T09:12:27.912Z,101366.44
2022-09-28T09:15:13.352Z,101236.47
2022-09-28T09:17:48.758Z,101103.03
2022-09-28T09:20:44.187Z,101121.94
2022-09-28T09:23:48.019Z,101167.88
2022-09-28T09:26:29.459Z,101063.81
2022-09-28T09:29:07.796Z,100873.47
2022-09-28T09:32:09.582Z,100794.59
2022-09-28T09:34:41.983Z,100697.63
2022-09-28T09:37:11.292Z,100692.13
2022-09-28T09:39:59.147Z,100660.34
2022-09-28T09:42:34.266Z,100678.72
2022-09-28T09:45:17.459Z,100655.78
2022-09-28T09:47:49.216Z,100590.34
2022-09-28T09:50:30.309Z,100564.75
2022-09-28T09:53:09.518Z,100523.81
2022-09-28T09:55:43.462Z,100554.91
2022-09-28T09:58:30.964Z,100457.38
2022-09-28T10:01:09.111Z,100518.00
2022-09-28T10:03:41.206Z,100499.63
2022-09-28T10:06:12.442Z,100487.44
2022-09-28T10:08:44.264Z,100506.69
2022-09-28T10:11:22.933Z,100512.63
2022-09-28T10:13:49.542Z,100463.50
2022-09-28T10:16:19.556Z,100441.25
2022-09-28T10:18:46.215Z,100453.78
2022-09-28T10:21:18.707Z,100478.50
2022-09-28T10:23:46.198Z,100419.13
2022-09-28T10:26:22.801Z,100439.44
2022-09-28T10:28:56.235Z,100446.16
2022-09-28T10:31:46.122Z,100493.06
2022-09-28T10:34:14.251Z,100521.13
2022-09-28T10:36:53.368Z,100494.56
2022-09-28T10:39:31.234Z,100511.06
2022-09-28T10:41:59.755Z,100448.72
2022-09-28T10:44:26.969Z,100478.69
2022-09-28T10:47:01.852Z,100420.34
2022-09-28T10:49:35.490Z,100471.41
2022-09-28T10:52:01.923Z,100455.66
2022-09-28T10:54:30.718Z,100488.13
2022-09-28T10:56:58.909Z,100494.41
2022-09-28T10:59:31.209Z,100521.00
2022-09-28T11:01:59.401Z,100504.34
2022-09-28T11:04:39.922Z,100544.44
2022-09-28T11:07:20.118Z,100556.53
2022-09-28T11:09:49.025Z,100540.78
2022-09-28T11:12:19.573Z,100560.19
2022-09-28T11:14:47.636Z,100562.56
2022-09-28T11:17:29.082Z,100541.03
2022-09-28T11:20:00.877Z,100562.63
2022-09-28T11:22:33.311Z,100591.50
2022-09-28T11:25:13.250Z,100635.88
2022-09-28T11:27:39.764Z,100660.81
2022-09-28T11:30:20.834Z,100628.19
2022-09-28T11:32:47.522Z,100693.28
2022-09-28T11:35:28.023Z,100702.00
2022-09-28T11:38:17.447Z,100713.41
2022-09-28T11:40:59.017Z,100706.28
2022-09-28T11:43:57.149Z,100687.94
2022-09-28T11:46:51.067Z,100722.91
2022-09-28T11:49:20.493Z,100704.19
2022-09-28T11:51:51.396Z,100669.09
2022-09-28T11:54:28.308Z,100630.31
2022-09-28T11:56:57.583Z,100600.69
2022-09-28T11:59:34.183Z,100561.03
2022-09-28T12:02:11.816Z,100571.06
2022-09-28T12:04:41.202Z,100556.78
2022-09-28T12:07:24.033Z,100542.06
2022-09-28T12:09:54.526Z,100574.03
2022-09-28T12:12:31.167Z,100601.28
2022-09-28T12:15:05.370Z,100634.25
2022-09-28T12:17:42.311Z,100631.50
2022-09-28T12:20:29.933Z,100645.63
2022-09-28T12:22:59.368Z,100614.53
2022-09-28T12:25:29.179Z,100607.50
2022-09-28T12:28:01.470Z,100650.09
2022-09-28T12:30:32.929Z,100633.19
2022-09-28T12:33:04.474Z,100598.53
2022-09-28T12:36:04.974Z,100619.22
2022-09-28T12:39:17.676Z,100610.41
2022-09-28T12:42:09.073Z,100565.50
2022-09-28T12:44:59.299Z,100628.13
2022-09-28T12:47:40.198Z,100621.69
2022-09-28T12:50:54.558Z,100636.53
2022-09-28T12:53:15.799Z,100613.69
2022-09-28T12:56:01.376Z,100661.22
2022-09-28T12:58:42.146Z,100651.47
2022-09-28T13:01:34.113Z,100652.78
2022-09-28T13:04:22.514Z,100660.59
2022-09-28T13:06:52.051Z,100634.25
2022-09-28T13:09:27.147Z,100642.53
2022-09-28T13:12:11.875Z,100640.75
2022-09-28T13:15:05.373Z,100596.53
2022-09-28T13:17:43.993Z,100601.88
2022-09-28T13:20:32.341Z,100606.66
2022-09-28T13:23:25.888Z,100573.19
2022-09-28T13:26:11.994Z,100547.16
2022-09-28T13:28:39.774Z,100564.94
2022-09-28T13:31:07.695Z,100548.91
2022-09-28T13:33:44.321Z,100521.34
2022-09-28T13:36:26.177Z,100492.59
2022-09-28T13:38:53.687Z,100452.00
2022-09-28T13:41:27.719Z,100460.22
2022-09-28T13:44:12.995Z,100448.34
2022-09-28T13:46:42.363Z,100471.06
2022-09-28T13:49:21.539Z,100441.75
2022-09-28T13:52:33.945Z,100415.44
2022-09-28T13:55:19.858Z,100450.88
2022-09-28T13:58:30.174Z,100449.41
2022-09-28T14:01:14.379Z,100426.47
2022-09-28T14:04:12.155Z,100408.16
2022-09-28T14:06:45.747Z,100438.47
2022-09-28T14:09:15.314Z,100460.78
2022-09-28T14:11:56.205Z,100454.06
2022-09-28T14:14:44.909Z,100447.63
2022-09-28T14:17:43.471Z,100468.28
2022-09-28T14:20:15.496Z,100452.72
2022-09-28T14:22:54.318Z,100486.25
2022-09-28T14:25:27.180Z,100504.41
2022-09-28T14:28:27.626Z,100527.69
2022-09-28T14:30:56.095Z,100499.31
2022-09-28T14:33:28.029Z,100526.91
2022-09-28T14:36:01.798Z,100529.88
2022-09-28T14:38:48.746Z,100529.63
2022-09-28T14:41:32.329Z,100528.63
2022-09-28T14:44:08.487Z,100522.78
2022-09-28T14:46:39.184Z,100545.69
2022-09-28T14:49:17.928Z,100552.38
2022-09-28T14:51:47.156Z,100530.66
2022-09-28T14:54:38.400Z,100547.06
2022-09-28T14:57:15.231Z,100570.88
2022-09-28T14:59:46.086Z,100557.66
2022-09-28T15:02:12.460Z,100562.19
2022-09-28T15:04:46.602Z,100543.22
2022-09-28T15:07:24.134Z,100549.25
2022-09-28T15:09:56.324Z,100561.31
2022-09-28T15:12:31.755Z,100581.06
2022-09-28T15:15:01.843Z,100578.28
2022-09-28T15:17:40.530Z,100593.94
2022-09-28T15:20:29.478Z,100596.78
2022-09-28T15:22:59.266Z,100611.47
2022-09-28T15:25:29.495Z,100593.41
2022-09-28T15:28:20.035Z,100591.91
2022-09-28T15:30:46.503Z,100565.38
2022-09-28T15:33:27.198Z,100520.72
2022-09-28T15:36:00.824Z,100492.81
2022-09-28T15:38:28.647Z,100479.72
2022-09-28T15:40:55.913Z,100455.22
2022-09-28T15:43:30.602Z,100412.25
2022-09-28T15:46:04.723Z,100435.38
2022-09-28T15:48:45.619Z,100449.19
2022-09-28T15:51:12.393Z,100425.38
2022-09-28T15:53:58.477Z,100425.00
2022-09-28T15:56:26.352Z,100399.72
2022-09-28T15:59:15.346Z,100388.00
2022-09-28T16:01:45.209Z,100406.22
2022-09-28T16:04:45.809Z,100418.75
2022-09-28T16:07:22.580Z,100402.69
2022-09-28T16:10:04.213Z,100408.84
2022-09-28T16:12:33.520Z,100422.97
2022-09-28T16:15:06.237Z,100429.69
2022-09-28T16:17:35.139Z,100434.13
2022-09-28T16:20:05.487Z,100365.06
2022-09-28T16:22:32.498Z,100448.81
2022-09-28T16:25:00.817Z,100434.56
2022-09-28T16:27:29.186Z,100444.34
2022-09-28T16:30:17.092Z,100451.06
2022-09-28T16:33:01.637Z,100425.53
2022-09-28T16:35:40.040Z,100455.00
2022-09-28T16:38:11.950Z,100458.66
2022-09-28T16:40:49.423Z,100475.56
2022-09-28T16:43:25.674Z,100463.31
2022-09-28T16:45:58.422Z,100488.28
2022-09-28T16:48:34.348Z,100493.69
2022-09-28T16:51:00.829Z,100459.72
2022-09-28T16:53:27.279Z,100468.31
2022-09-28T16:55:53.769Z,100460.81
2022-09-28T16:58:21.059Z,100485.53
2022-09-28T17:00:47.645Z,100486.41
2022-09-28T17:03:17.879Z,100490.97
2022-09-28T17:05:46.153Z,100492.44
2022-09-28T17:08:15.587Z,100540.50
2022-09-28T17:11:13.903Z,100579.56
2022-09-28T17:13:43.405Z,100651.06
2022-09-28T17:16:28.194Z,100669.56
2022-09-28T17:19:03.525Z,100712.59
2022-09-28T17:21:31.051Z,100735.94
2022-09-28T17:23:57.517Z,100743.38
2022-09-28T17:26:29.042Z,100768.34
2022-09-28T17:28:55.949Z,100804.25
2022-09-28T17:31:22.406Z,100801.66
2022-09-28T17:33:48.891Z,100796.03
2022-09-28T17:36:17.428Z,100839.78
2022-09-28T17:38:45.362Z,100836.41
2022-09-28T17:41:19.384Z,100885.19
2022-09-28T17:43:46.772Z,100871.31
2022-09-28T17:46:32.701Z,100898.56
2022-09-28T17:49:01.598Z,100927.38
2022-09-28T17:51:30.336Z,100928.56
2022-09-28T17:54:00.144Z,100939.41
2022-09-28T17:56:31.937Z,101019.41
2022-09-28T17:59:01.456Z,100990.84
2022-09-28T18:01:27.923Z,101052.06
2022-09-28T18:03:54.556Z,101047.91
2022-09-28T18:06:21.017Z,101003.56
2022-09-28T18:08:47.451Z,101090.94
2022-09-28T18:11:14.288Z,101129.97
2022-09-28T18:13:40.733Z,101138.66
2022-09-28T18:16:08.205Z,101178.06
2022-09-28T18:18:35.563Z,101191.09
2022-09-28T18:21:02.085Z,101224.19
2022-09-28T18:23:28.489Z,101241.91
2022-09-28T18:25:55.024Z,101272.44
2022-09-28T18:28:21.487Z,101290.19
2022-09-28T18:30:47.997Z,101299.91
2022-09-28T18:33:14.884Z,101313.41
2022-09-28T18:35:41.388Z,101349.31
2022-09-28T18:38:08.037Z,101359.69
2022-09-28T18:40:35.810Z,101428.25
2022-09-28T18:43:03.029Z,101443.56
2022-09-28T18:45:29.855Z,101505.66
2022-09-28T18:47:57.369Z,101503.84
2022-09-28T18:50:23.802Z,101578.00
2022-09-28T18:52:50.220Z,101625.50
2022-09-28T18:55:16.729Z,101680.41
2022-09-28T18:57:43.163Z,101938.00
2022-09-28T19:00:12.163Z,101977.88
2022-09-28T19:02:39.129Z,101969.75
2022-09-28T19:05:06.472Z,101943.38
2022-09-28T19:07:33.524Z,101919.47
2022-09-28T19:10:00.071Z,101890.53
2022-09-28T19:12:26.487Z,101926.81
2022-09-28T19:14:52.899Z,101966.66
2022-09-28T19:17:20.384Z,101967.97
2022-09-28T19:19:46.791Z,101976.91
2022-09-28T19:22:13.241Z,102017.94
2022-09-28T19:24:39.696Z,102028.50
2022-09-28T19:27:06.209Z,102063.31
2022-09-28T19:29:32.751Z,102071.66
2022-09-28T19:31:59.164Z,102109.16
2022-09-28T19:34:25.915Z,102118.16
2022-09-28T19:36:52.455Z,102113.22
2022-09-28T19:39:18.916Z,102137.13
2022-09-28T19:41:45.481Z,102124.00
2022-09-28T19:44:16.397Z,102206.97
2022-09-28T19:46:43.211Z,102217.88
2022-09-28T19:49:15.676Z,102341.19
2022-09-28T19:51:51.656Z,102404.22
2022-09-28T19:54:31.118Z,102382.28
2022-09-28T19:57:01.187Z,102350.19
2022-09-28T19:59:27.791Z,102360.44
2022-09-28T20:01:54.561Z,102321.78
2022-09-28T20:04:21.296Z,102347.59
2022-09-28T20:06:47.866Z,102362.16
2022-09-28T20:09:14.402Z,102369.78
2022-09-28T20:11:40.911Z,102414.84
2022-09-28T20:14:09.792Z,102421.38
2022-09-28T20:16:36.734Z,102420.00
2022-09-28T20:19:03.367Z,102438.22
2022-09-28T20:21:30.170Z,102459.84
2022-09-28T20:23:56.634Z,102394.44
2022-09-28T20:26:23.841Z,102491.78
2022-09-28T20:28:50.292Z,102509.88
2022-09-28T20:31:19.794Z,102526.38
2022-09-28T20:33:47.094Z,102545.38
2022-09-28T20:36:21.602Z,102544.81
2022-09-28T20:38:50.002Z,102581.41
2022-09-28T20:41:18.408Z,102543.84
2022-09-28T20:43:46.121Z,102550.28
2022-09-28T20:46:13.992Z,102610.56
2022-09-28T20:48:40.758Z,102643.00
2022-09-28T20:51:14.522Z,102605.13
2022-09-28T20:53:43.131Z,102667.75
2022-09-28T20:56:16.699Z,102630.44
2022-09-28T20:58:43.177Z,102727.84
2022-09-28T21:01:11.066Z,102703.19
2022-09-28T21:03:38.480Z,102752.28
2022-09-28T21:06:11.419Z,102759.41
2022-09-28T21:08:38.638Z,102717.75
2022-09-28T21:11:05.270Z,102667.47
2022-09-28T21:13:31.691Z,102786.91
2022-09-28T21:16:01.743Z,102796.91
2022-09-28T21:18:28.254Z,102726.84
2022-09-28T21:20:54.733Z,102800.69
2022-09-28T21:23:24.761Z,102758.75
2022-09-28T21:26:01.051Z,102836.66
2022-09-28T21:28:27.454Z,102846.41
2022-09-28T21:30:54.028Z,102851.94
2022-09-28T21:33:20.585Z,102870.81
2022-09-28T21:35:46.990Z,102899.81
2022-09-28T21:38:13.425Z,102815.22
2022-09-28T21:40:39.869Z,102913.16
2022-09-28T21:43:06.292Z,102876.50
2022-09-28T21:45:32.736Z,102840.91
2022-09-28T21:47:59.184Z,102838.31
2022-09-28T21:50:26.757Z,102892.88
2022-09-28T21:52:55.232Z,102922.91
2022-09-28T21:55:23.502Z,102927.09
2022-09-28T21:57:51.034Z,102900.94
2022-09-28T22:00:20.486Z,102887.31
2022-09-28T22:02:46.970Z,102901.56
2022-09-28T22:05:13.488Z,102790.09
2022-09-28T22:07:41.379Z,102862.50
2022-09-28T22:10:11.234Z,102817.38
2022-09-28T22:12:38.222Z,102843.56
2022-09-28T22:15:05.461Z,102834.72
2022-09-28T22:17:31.857Z,102766.13
2022-09-28T22:19:58.323Z,102837.56
2022-09-28T22:22:28.963Z,102775.59
2022-09-28T22:24:55.657Z,102816.03
2022-09-28T22:27:22.092Z,102790.66
2022-09-28T22:29:48.471Z,102760.13
2022-09-28T22:32:14.893Z,102812.25
2022-09-28T22:34:41.427Z,102737.03
2022-09-28T22:37:07.795Z,102802.31
2022-09-28T22:39:37.555Z,102838.44
2022-09-28T22:42:04.463Z,102846.19
2022-09-28T22:44:30.903Z,102782.97
2022-09-28T22:46:57.292Z,102803.41
2022-09-28T22:49:23.772Z,102833.59
2022-09-28T22:51:50.151Z,102821.28
2022-09-28T22:54:16.636Z,102734.75
2022-09-28T22:56:43.759Z,102736.53
2022-09-28T22:59:11.535Z,102730.75
2022-09-28T23:01:38.385Z,102785.94
2022-09-28T23:04:04.923Z,102732.59
2022-09-28T23:06:31.346Z,102793.56
2022-09-28T23:08:57.928Z,102777.63
2022-09-28T23:11:24.780Z,102773.78
2022-09-28T23:13:52.922Z,102741.81
2022-09-28T23:16:20.288Z,102730.13
2022-09-28T23:18:47.037Z,102739.13
2022-09-28T23:21:16.372Z,102798.47
2022-09-28T23:23:46.595Z,102750.19
2022-09-28T23:26:18.394Z,102766.19
2022-09-28T23:28:45.644Z,102829.41
2022-09-28T23:31:15.469Z,102837.31
2022-09-28T23:33:42.243Z,102756.78
2022-09-28T23:36:09.227Z,102764.88
2022-09-28T23:38:35.762Z,102793.88
2022-09-28T23:41:02.253Z,102825.91
2022-09-28T23:43:28.660Z,102770.00
2022-09-28T23:45:55.042Z,102837.19
2022-09-28T23:48:21.454Z,102823.44
2022-09-28T23:50:47.852Z,102806.16
2022-09-28T23:53:14.875Z,102817.31
2022-09-28T23:55:42.434Z,102794.50
2022-09-28T23:58:09.495Z,102784.53
